sensor_id;sensor_type;location;lat;lon;timestamp;temperature;humidity
66610;DHT22;53468;48.276;14.416;2022-12-07T00:03:28;4.10;99.90
66610;DHT22;53468;48.276;14.416;2022-12-07T00:09:01;4.10;99.90
66610;DHT22;53468;48.276;14.416;2022-12-07T00:14:33;4.00;99.90
66610;DHT22;53468;48.276;14.416;2022-12-07T00:20:07;4.00;99.90
66610;DHT22;53468;48.276;14.416;2022-12-07T00:25:40;4.00;99.90
66610;DHT22;53468;48.276;14.416;2022-12-07T00:31:12;4.00;99.90
66610;DHT22;53468;48.276;14.416;2022-12-07T00:36:46;4.00;99.90
66610;DHT22;53468;48.276;14.416;2022-12-07T00:42:18;4.00;99.90
66610;DHT22;53468;48.276;14.416;2022-12-07T00:47:50;4.00;99.90
66610;DHT22;53468;48.276;14.416;2022-12-07T00:53:24;4.00;99.90
66610;DHT22;53468;48.276;14.416;2022-12-07T00:58:58;4.00;99.90
66610;DHT22;53468;48.276;14.416;2022-12-07T01:04:33;4.00;99.90
66610;DHT22;53468;48.276;14.416;2022-12-07T01:10:08;3.90;99.90
66610;DHT22;53468;48.276;14.416;2022-12-07T01:15:40;3.90;99.90
66610;DHT22;53468;48.276;14.416;2022-12-07T01:21:14;3.90;99.90
66610;DHT22;53468;48.276;14.416;2022-12-07T01:26:50;3.90;99.90
66610;DHT22;53468;48.276;14.416;2022-12-07T01:32:22;3.90;99.90
66610;DHT22;53468;48.276;14.416;2022-12-07T01:37:54;3.90;99.90
66610;DHT22;53468;48.276;14.416;2022-12-07T01:43:29;3.90;99.90
66610;DHT22;53468;48.276;14.416;2022-12-07T01:49:02;3.90;99.90
66610;DHT22;53468;48.276;14.416;2022-12-07T01:54:35;4.00;99.90
66610;DHT22;53468;48.276;14.416;2022-12-07T02:00:10;3.90;99.90
66610;DHT22;53468;48.276;14.416;2022-12-07T02:05:43;4.00;99.90
66610;DHT22;53468;48.276;14.416;2022-12-07T02:11:16;4.00;99.90
66610;DHT22;53468;48.276;14.416;2022-12-07T02:17:00;4.00;99.90
66610;DHT22;53468;48.276;14.416;2022-12-07T02:28:35;4.10;99.90
66610;DHT22;53468;48.276;14.416;2022-12-07T02:34:14;4.00;99.90
66610;DHT22;53468;48.276;14.416;2022-12-07T02:39:55;4.00;99.90
66610;DHT22;53468;48.276;14.416;2022-12-07T02:45:29;4.00;99.90
66610;DHT22;53468;48.276;14.416;2022-12-07T02:51:04;4.10;99.90
66610;DHT22;53468;48.276;14.416;2022-12-07T02:56:41;4.10;99.90
66610;DHT22;53468;48.276;14.416;2022-12-07T03:02:24;4.10;99.90
66610;DHT22;53468;48.276;14.416;2022-12-07T03:08:02;4.10;99.90
66610;DHT22;53468;48.276;14.416;2022-12-07T03:13:41;4.10;99.90
66610;DHT22;53468;48.276;14.416;2022-12-07T03:19:18;4.10;99.90
66610;DHT22;53468;48.276;14.416;2022-12-07T03:24:57;4.10;99.90
66610;DHT22;53468;48.276;14.416;2022-12-07T03:30:33;4.10;99.90
66610;DHT22;53468;48.276;14.416;2022-12-07T03:36:11;4.10;99.90
66610;DHT22;53468;48.276;14.416;2022-12-07T03:41:47;4.20;99.90
66610;DHT22;53468;48.276;14.416;2022-12-07T03:47:24;4.10;99.90
66610;DHT22;53468;48.276;14.416;2022-12-07T03:53:02;4.10;99.90
66610;DHT22;53468;48.276;14.416;2022-12-07T03:58:38;4.10;99.90
66610;DHT22;53468;48.276;14.416;2022-12-07T04:04:11;4.10;99.90
66610;DHT22;53468;48.276;14.416;2022-12-07T04:09:44;4.00;99.90
66610;DHT22;53468;48.276;14.416;2022-12-07T04:15:17;4.00;99.90
66610;DHT22;53468;48.276;14.416;2022-12-07T04:20:49;4.00;99.90
66610;DHT22;53468;48.276;14.416;2022-12-07T04:26:21;4.00;99.90
66610;DHT22;53468;48.276;14.416;2022-12-07T04:31:56;4.00;99.90
66610;DHT22;53468;48.276;14.416;2022-12-07T04:37:28;4.00;99.90
66610;DHT22;53468;48.276;14.416;2022-12-07T04:43:00;4.00;99.90
66610;DHT22;53468;48.276;14.416;2022-12-07T04:48:35;4.00;99.90
66610;DHT22;53468;48.276;14.416;2022-12-07T04:54:07;4.00;99.90
66610;DHT22;53468;48.276;14.416;2022-12-07T04:59:40;4.00;99.90
66610;DHT22;53468;48.276;14.416;2022-12-07T05:05:14;3.90;99.90
66610;DHT22;53468;48.276;14.416;2022-12-07T05:10:48;4.00;99.90
66610;DHT22;53468;48.276;14.416;2022-12-07T05:16:20;3.90;99.90
66610;DHT22;53468;48.276;14.416;2022-12-07T05:21:54;3.90;99.90
66610;DHT22;53468;48.276;14.416;2022-12-07T05:27:26;3.90;99.90
66610;DHT22;53468;48.276;14.416;2022-12-07T05:32:58;3.80;99.90
66610;DHT22;53468;48.276;14.416;2022-12-07T05:38:32;3.80;99.90
66610;DHT22;53468;48.276;14.416;2022-12-07T05:44:04;3.90;99.90
66610;DHT22;53468;48.276;14.416;2022-12-07T05:49:37;3.80;99.90
66610;DHT22;53468;48.276;14.416;2022-12-07T05:55:10;3.80;99.90
66610;DHT22;53468;48.276;14.416;2022-12-07T06:00:42;3.80;99.90
66610;DHT22;53468;48.276;14.416;2022-12-07T06:06:14;3.80;99.90
66610;DHT22;53468;48.276;14.416;2022-12-07T06:11:48;3.80;99.90
66610;DHT22;53468;48.276;14.416;2022-12-07T06:17:39;3.80;99.90
66610;DHT22;53468;48.276;14.416;2022-12-07T06:23:11;3.80;99.90
66610;DHT22;53468;48.276;14.416;2022-12-07T06:28:45;3.70;99.90
66610;DHT22;53468;48.276;14.416;2022-12-07T06:34:20;3.80;99.90
66610;DHT22;53468;48.276;14.416;2022-12-07T06:39:53;3.80;99.90
66610;DHT22;53468;48.276;14.416;2022-12-07T06:45:27;3.70;99.90
66610;DHT22;53468;48.276;14.416;2022-12-07T06:50:59;3.70;99.90
66610;DHT22;53468;48.276;14.416;2022-12-07T06:56:31;3.70;99.90
66610;DHT22;53468;48.276;14.416;2022-12-07T07:02:05;3.70;99.90
66610;DHT22;53468;48.276;14.416;2022-12-07T07:07:37;3.80;99.90
66610;DHT22;53468;48.276;14.416;2022-12-07T07:13:09;3.80;99.90
66610;DHT22;53468;48.276;14.416;2022-12-07T07:18:43;3.80;99.90
66610;DHT22;53468;48.276;14.416;2022-12-07T07:24:15;3.90;99.90
66610;DHT22;53468;48.276;14.416;2022-12-07T07:29:47;3.80;99.90
66610;DHT22;53468;48.276;14.416;2022-12-07T07:35:21;3.90;99.90
66610;DHT22;53468;48.276;14.416;2022-12-07T07:40:53;4.00;99.90
66610;DHT22;53468;48.276;14.416;2022-12-07T07:46:25;4.00;99.90
66610;DHT22;53468;48.276;14.416;2022-12-07T07:51:58;4.10;99.90
66610;DHT22;53468;48.276;14.416;2022-12-07T07:57:31;4.10;99.90
66610;DHT22;53468;48.276;14.416;2022-12-07T08:03:03;4.10;99.90
66610;DHT22;53468;48.276;14.416;2022-12-07T08:08:37;4.10;99.90
66610;DHT22;53468;48.276;14.416;2022-12-07T08:14:10;4.10;99.90
66610;DHT22;53468;48.276;14.416;2022-12-07T08:19:42;4.10;99.90
66610;DHT22;53468;48.276;14.416;2022-12-07T08:25:17;4.20;99.90
66610;DHT22;53468;48.276;14.416;2022-12-07T08:30:49;4.40;99.90
66610;DHT22;53468;48.276;14.416;2022-12-07T08:36:21;4.40;99.90
66610;DHT22;53468;48.276;14.416;2022-12-07T08:41:55;4.40;99.90
66610;DHT22;53468;48.276;14.416;2022-12-07T08:47:27;4.50;99.90
66610;DHT22;53468;48.276;14.416;2022-12-07T08:53:00;4.50;99.90
66610;DHT22;53468;48.276;14.416;2022-12-07T08:58:34;4.50;99.90
66610;DHT22;53468;48.276;14.416;2022-12-07T09:04:07;4.40;99.90
66610;DHT22;53468;48.276;14.416;2022-12-07T09:09:39;4.40;99.90
66610;DHT22;53468;48.276;14.416;2022-12-07T09:15:14;4.50;99.90
66610;DHT22;53468;48.276;14.416;2022-12-07T09:20:46;4.70;99.90
66610;DHT22;53468;48.276;14.416;2022-12-07T09:26:18;4.70;99.90
66610;DHT22;53468;48.276;14.416;2022-12-07T09:31:51;4.80;99.90
66610;DHT22;53468;48.276;14.416;2022-12-07T09:37:23;4.80;99.90
66610;DHT22;53468;48.276;14.416;2022-12-07T09:42:56;5.00;99.90
66610;DHT22;53468;48.276;14.416;2022-12-07T09:48:32;4.80;99.90
66610;DHT22;53468;48.276;14.416;2022-12-07T09:54:07;4.90;99.90
66610;DHT22;53468;48.276;14.416;2022-12-07T09:59:40;4.80;99.90
66610;DHT22;53468;48.276;14.416;2022-12-07T10:05:16;4.60;99.90
66610;DHT22;53468;48.276;14.416;2022-12-07T10:10:52;4.80;99.90
66610;DHT22;53468;48.276;14.416;2022-12-07T10:16:38;4.80;99.90
66610;DHT22;53468;48.276;14.416;2022-12-07T10:22:14;5.00;99.90
66610;DHT22;53468;48.276;14.416;2022-12-07T10:27:57;5.00;99.90
66610;DHT22;53468;48.276;14.416;2022-12-07T10:33:35;5.10;99.90
66610;DHT22;53468;48.276;14.416;2022-12-07T10:39:13;5.10;99.90
66610;DHT22;53468;48.276;14.416;2022-12-07T10:44:47;5.10;99.90
66610;DHT22;53468;48.276;14.416;2022-12-07T10:56:56;4.90;99.90
66610;DHT22;53468;48.276;14.416;2022-12-07T11:02:43;4.90;99.90
66610;DHT22;53468;48.276;14.416;2022-12-07T11:08:34;4.90;99.90
66610;DHT22;53468;48.276;14.416;2022-12-07T11:14:22;4.80;99.90
66610;DHT22;53468;48.276;14.416;2022-12-07T11:20:02;5.00;99.90
66610;DHT22;53468;48.276;14.416;2022-12-07T11:25:43;5.00;99.90
66610;DHT22;53468;48.276;14.416;2022-12-07T11:31:26;4.90;99.90
66610;DHT22;53468;48.276;14.416;2022-12-07T11:37:02;5.10;99.90
66610;DHT22;53468;48.276;14.416;2022-12-07T11:42:42;5.50;99.90
66610;DHT22;53468;48.276;14.416;2022-12-07T11:48:22;5.70;99.90
66610;DHT22;53468;48.276;14.416;2022-12-07T11:53:58;5.60;99.90
66610;DHT22;53468;48.276;14.416;2022-12-07T11:59:38;5.60;99.90
66610;DHT22;53468;48.276;14.416;2022-12-07T12:05:17;5.40;99.90
66610;DHT22;53468;48.276;14.416;2022-12-07T12:10:55;5.40;99.90
66610;DHT22;53468;48.276;14.416;2022-12-07T12:16:48;5.50;99.90
66610;DHT22;53468;48.276;14.416;2022-12-07T12:22:33;5.50;99.90
66610;DHT22;53468;48.276;14.416;2022-12-07T12:28:20;5.50;99.90
66610;DHT22;53468;48.276;14.416;2022-12-07T12:33:54;5.50;99.90
66610;DHT22;53468;48.276;14.416;2022-12-07T12:39:29;5.60;99.90
66610;DHT22;53468;48.276;14.416;2022-12-07T12:45:18;5.60;99.90
66610;DHT22;53468;48.276;14.416;2022-12-07T12:57:06;5.60;99.90
66610;DHT22;53468;48.276;14.416;2022-12-07T13:02:49;5.60;99.90
66610;DHT22;53468;48.276;14.416;2022-12-07T13:08:24;5.70;99.90
66610;DHT22;53468;48.276;14.416;2022-12-07T13:20:39;5.50;99.90
66610;DHT22;53468;48.276;14.416;2022-12-07T13:26:13;5.40;99.90
66610;DHT22;53468;48.276;14.416;2022-12-07T13:31:48;5.30;99.90
66610;DHT22;53468;48.276;14.416;2022-12-07T13:37:25;5.20;99.90
66610;DHT22;53468;48.276;14.416;2022-12-07T13:43:04;5.20;99.90
66610;DHT22;53468;48.276;14.416;2022-12-07T13:48:47;5.20;99.90
66610;DHT22;53468;48.276;14.416;2022-12-07T13:54:20;5.20;99.90
66610;DHT22;53468;48.276;14.416;2022-12-07T13:59:57;5.30;99.90
66610;DHT22;53468;48.276;14.416;2022-12-07T14:05:35;5.10;99.90
66610;DHT22;53468;48.276;14.416;2022-12-07T14:11:13;5.00;99.90
66610;DHT22;53468;48.276;14.416;2022-12-07T14:17:01;5.00;99.90
66610;DHT22;53468;48.276;14.416;2022-12-07T14:22:34;5.00;99.90
66610;DHT22;53468;48.276;14.416;2022-12-07T14:28:25;4.90;99.90
66610;DHT22;53468;48.276;14.416;2022-12-07T14:34:01;4.90;99.90
66610;DHT22;53468;48.276;14.416;2022-12-07T14:39:33;4.90;99.90
66610;DHT22;53468;48.276;14.416;2022-12-07T14:45:10;4.80;99.90
66610;DHT22;53468;48.276;14.416;2022-12-07T14:50:53;4.70;99.90
66610;DHT22;53468;48.276;14.416;2022-12-07T14:56:26;4.60;99.90
66610;DHT22;53468;48.276;14.416;2022-12-07T15:01:59;4.60;99.90
66610;DHT22;53468;48.276;14.416;2022-12-07T15:07:33;4.60;99.90
66610;DHT22;53468;48.276;14.416;2022-12-07T15:13:06;4.60;99.90
66610;DHT22;53468;48.276;14.416;2022-12-07T15:18:56;4.50;99.90
66610;DHT22;53468;48.276;14.416;2022-12-07T15:24:29;4.30;99.90
66610;DHT22;53468;48.276;14.416;2022-12-07T15:30:02;4.30;99.90
66610;DHT22;53468;48.276;14.416;2022-12-07T15:35:38;4.20;99.90
66610;DHT22;53468;48.276;14.416;2022-12-07T15:41:12;4.30;99.90
66610;DHT22;53468;48.276;14.416;2022-12-07T15:46:44;4.30;99.90
66610;DHT22;53468;48.276;14.416;2022-12-07T15:52:17;4.20;99.90
66610;DHT22;53468;48.276;14.416;2022-12-07T15:57:51;4.00;99.90
66610;DHT22;53468;48.276;14.416;2022-12-07T16:03:23;3.90;99.90
66610;DHT22;53468;48.276;14.416;2022-12-07T16:08:55;3.80;99.90
66610;DHT22;53468;48.276;14.416;2022-12-07T16:14:29;3.70;99.90
66610;DHT22;53468;48.276;14.416;2022-12-07T16:20:04;3.70;99.90
66610;DHT22;53468;48.276;14.416;2022-12-07T16:25:36;3.60;99.90
66610;DHT22;53468;48.276;14.416;2022-12-07T16:31:12;3.70;99.90
66610;DHT22;53468;48.276;14.416;2022-12-07T16:36:44;3.60;99.90
66610;DHT22;53468;48.276;14.416;2022-12-07T16:42:16;3.60;99.90
66610;DHT22;53468;48.276;14.416;2022-12-07T16:47:50;3.50;99.90
66610;DHT22;53468;48.276;14.416;2022-12-07T16:53:23;3.60;99.90
66610;DHT22;53468;48.276;14.416;2022-12-07T16:58:57;3.50;99.90
66610;DHT22;53468;48.276;14.416;2022-12-07T17:04:32;3.60;99.90
66610;DHT22;53468;48.276;14.416;2022-12-07T17:10:06;3.60;99.90
66610;DHT22;53468;48.276;14.416;2022-12-07T17:15:38;3.50;99.90
66610;DHT22;53468;48.276;14.416;2022-12-07T17:21:12;3.50;99.90
66610;DHT22;53468;48.276;14.416;2022-12-07T17:26:45;3.40;99.90
66610;DHT22;53468;48.276;14.416;2022-12-07T17:32:17;3.50;99.90
66610;DHT22;53468;48.276;14.416;2022-12-07T17:37:51;3.50;99.90
66610;DHT22;53468;48.276;14.416;2022-12-07T17:43:23;3.50;99.90
66610;DHT22;53468;48.276;14.416;2022-12-07T17:48:56;3.50;99.90
66610;DHT22;53468;48.276;14.416;2022-12-07T17:54:29;3.60;99.90
66610;DHT22;53468;48.276;14.416;2022-12-07T18:00:02;3.60;99.90
66610;DHT22;53468;48.276;14.416;2022-12-07T18:05:35;3.50;99.90
66610;DHT22;53468;48.276;14.416;2022-12-07T18:11:09;3.50;99.90
66610;DHT22;53468;48.276;14.416;2022-12-07T18:16:41;3.50;99.90
66610;DHT22;53468;48.276;14.416;2022-12-07T18:22:13;3.50;99.90
66610;DHT22;53468;48.276;14.416;2022-12-07T18:27:47;3.40;99.90
66610;DHT22;53468;48.276;14.416;2022-12-07T18:33:20;3.40;99.90
66610;DHT22;53468;48.276;14.416;2022-12-07T18:38:52;3.30;99.90
66610;DHT22;53468;48.276;14.416;2022-12-07T18:44:25;3.40;99.90
66610;DHT22;53468;48.276;14.416;2022-12-07T18:49:57;3.30;99.90
66610;DHT22;53468;48.276;14.416;2022-12-07T18:55:30;3.20;99.90
66610;DHT22;53468;48.276;14.416;2022-12-07T19:01:04;3.20;99.90
66610;DHT22;53468;48.276;14.416;2022-12-07T19:06:36;3.20;99.90
66610;DHT22;53468;48.276;14.416;2022-12-07T19:12:10;3.20;99.90
66610;DHT22;53468;48.276;14.416;2022-12-07T19:17:44;3.20;99.90
66610;DHT22;53468;48.276;14.416;2022-12-07T19:23:16;3.20;99.90
66610;DHT22;53468;48.276;14.416;2022-12-07T19:28:48;3.30;99.90
66610;DHT22;53468;48.276;14.416;2022-12-07T19:34:23;3.20;99.90
66610;DHT22;53468;48.276;14.416;2022-12-07T19:39:55;3.30;99.90
66610;DHT22;53468;48.276;14.416;2022-12-07T19:45:27;3.30;99.90
66610;DHT22;53468;48.276;14.416;2022-12-07T19:51:04;3.20;99.90
66610;DHT22;53468;48.276;14.416;2022-12-07T19:56:36;3.30;99.90
66610;DHT22;53468;48.276;14.416;2022-12-07T20:02:12;3.20;99.90
66610;DHT22;53468;48.276;14.416;2022-12-07T20:07:46;3.20;99.90
66610;DHT22;53468;48.276;14.416;2022-12-07T20:13:19;3.20;99.90
66610;DHT22;53468;48.276;14.416;2022-12-07T20:19:02;3.20;99.90
66610;DHT22;53468;48.276;14.416;2022-12-07T20:24:36;3.20;99.90
66610;DHT22;53468;48.276;14.416;2022-12-07T20:30:09;3.10;99.90
66610;DHT22;53468;48.276;14.416;2022-12-07T20:35:41;3.20;99.90
66610;DHT22;53468;48.276;14.416;2022-12-07T20:41:15;3.20;99.90
66610;DHT22;53468;48.276;14.416;2022-12-07T20:47:05;3.20;99.90
66610;DHT22;53468;48.276;14.416;2022-12-07T20:52:37;3.10;99.90
66610;DHT22;53468;48.276;14.416;2022-12-07T20:58:11;3.00;99.90
66610;DHT22;53468;48.276;14.416;2022-12-07T21:03:43;3.00;99.90
66610;DHT22;53468;48.276;14.416;2022-12-07T21:09:15;3.00;99.90
66610;DHT22;53468;48.276;14.416;2022-12-07T21:14:49;3.00;99.90
66610;DHT22;53468;48.276;14.416;2022-12-07T21:20:21;3.00;99.90
66610;DHT22;53468;48.276;14.416;2022-12-07T21:25:53;3.00;99.90
66610;DHT22;53468;48.276;14.416;2022-12-07T21:31:27;2.90;99.90
66610;DHT22;53468;48.276;14.416;2022-12-07T21:36:59;2.90;99.90
66610;DHT22;53468;48.276;14.416;2022-12-07T21:42:32;2.90;99.90
66610;DHT22;53468;48.276;14.416;2022-12-07T21:48:05;2.90;99.90
66610;DHT22;53468;48.276;14.416;2022-12-07T21:53:40;2.90;99.90
66610;DHT22;53468;48.276;14.416;2022-12-07T21:59:14;2.80;99.90
66610;DHT22;53468;48.276;14.416;2022-12-07T22:04:49;2.80;99.90
66610;DHT22;53468;48.276;14.416;2022-12-07T22:10:21;2.80;99.90
66610;DHT22;53468;48.276;14.416;2022-12-07T22:15:59;2.80;99.90
66610;DHT22;53468;48.276;14.416;2022-12-07T22:21:32;2.80;99.90
66610;DHT22;53468;48.276;14.416;2022-12-07T22:27:05;2.90;99.90
66610;DHT22;53468;48.276;14.416;2022-12-07T22:32:38;2.90;99.90
66610;DHT22;53468;48.276;14.416;2022-12-07T22:38:11;2.80;99.90
66610;DHT22;53468;48.276;14.416;2022-12-07T22:43:43;2.90;99.90
66610;DHT22;53468;48.276;14.416;2022-12-07T22:49:15;2.80;99.90
66610;DHT22;53468;48.276;14.416;2022-12-07T22:54:49;2.80;99.90
66610;DHT22;53468;48.276;14.416;2022-12-07T23:00:22;2.80;99.90
66610;DHT22;53468;48.276;14.416;2022-12-07T23:05:54;2.80;99.90
66610;DHT22;53468;48.276;14.416;2022-12-07T23:11:29;2.70;99.90
66610;DHT22;53468;48.276;14.416;2022-12-07T23:17:19;2.70;99.90
66610;DHT22;53468;48.276;14.416;2022-12-07T23:22:51;2.80;99.90
66610;DHT22;53468;48.276;14.416;2022-12-07T23:28:25;2.70;99.90
66610;DHT22;53468;48.276;14.416;2022-12-07T23:33:57;2.70;99.90
66610;DHT22;53468;48.276;14.416;2022-12-07T23:39:29;2.70;99.90
66610;DHT22;53468;48.276;14.416;2022-12-07T23:45:03;2.70;99.90
66610;DHT22;53468;48.276;14.416;2022-12-07T23:50:35;2.70;99.90
66610;DHT22;53468;48.276;14.416;2022-12-07T23:56:11;2.60;99.90
